Terminal Aerodrome Forecast
Issued by NWS

Home | Current Version | Previous Version | Text Only | Print | Product List | Glossary Off
Versions: 1 2 3 4 5 6 7 8 9 10 11 12 13 14 15 16 17 18 19 20 21 22 23

000
FTUS43 KTOP 250951 AAB
TAFMHK
TAF AMD
KMHK 250951Z 2510/2606 05003KT P6SM SCT008 BKN015
     FM251200 02004KT P6SM -SHRA VCTS BKN030CB
     FM251600 04005KT P6SM BKN060
     FM252300 06006KT P6SM VCTS BKN050CB=

USA.gov is the U.S. government's official web portal to all federal, state and local government web resources and services.